Time;durP1;ratioP1;P1;durP2;ratioP2;P2;SDS_P1;SDS_P2;PMS_P1;PMS_P2;Temp;Humidity;BMP_temperature;BMP_pressure;BME280_temperature;BME280_humidity;BME280_pressure;Samples;Min_cycle;Max_cycle;Signal;HPM_P1;HPM_P2
2023/05/02 00:00:13;;;;;;;;;;;;;;;;;;5013652;28;20015;-61
2023/05/02 00:02:40;;;;;;;;;;;;;;;;;;5052903;28;19967;-60
2023/05/02 00:05:06;;;;;;;;;;;;;;;;;;5053764;28;19929;-60
2023/05/02 00:07:32;;;;;;;;;;;;;;;;;;5052653;28;19928;-61
2023/05/02 00:09:58;;;;;;;;;;;;;;;;;;5036602;28;19921;-61
2023/05/02 00:12:23;;;;;;;;;;;;;;;;;;5052445;28;19936;-60
2023/05/02 00:14:49;;;;;;;;;;;;;;;;;;5049786;28;19932;-61
2023/05/02 00:17:16;;;;;;;;;;;;;;;;;;5040073;28;19933;-60
2023/05/02 00:19:42;;;;;;;;;;;;;;;;;;5048264;28;19932;-60
2023/05/02 00:22:08;;;;;;;;;;;;;;;;;;5052643;28;20578;-61
2023/05/02 00:24:34;;;;;;;;;;;;;;;;;;5049729;28;20328;-61
2023/05/02 00:27:00;;;;;;;;;;;;;;;;;;5046393;28;19921;-60
2023/05/02 00:29:25;;;;;;;;;;;;;;;;;;5053476;28;19931;-60
2023/05/02 00:31:51;;;;;;;;;;;;;;;;;;5044560;28;20374;-61
2023/05/02 00:34:17;;;;;;;;;;;;;;;;;;5048396;28;19924;-61
2023/05/02 00:36:43;;;;;;;;;;;;;;;;;;5054103;28;20388;-60
2023/05/02 00:39:09;;;;;;;;;;;;;;;;;;5052986;28;19958;-61
2023/05/02 00:41:35;;;;;;;;;;;;;;;;;;5052717;28;20175;-60
2023/05/02 00:44:01;;;;;;;;;;;;;;;;;;5035552;28;19962;-61
2023/05/02 00:46:27;;;;;;;;;;;;;;;;;;5051181;28;20343;-60
2023/05/02 00:48:53;;;;;;;;;;;;;;;;;;5050644;28;19924;-61
2023/05/02 00:51:19;;;;;;;;;;;;;;;;;;5048660;28;19924;-61
2023/05/02 00:53:45;;;;;;;;;;;;;;;;;;5044322;28;20015;-61
2023/05/02 00:56:11;;;;;;;;;;;;;;;;;;5048693;28;19998;-61
2023/05/02 00:58:37;;;;;;;;;;;;;;;;;;5039832;28;19928;-60
2023/05/02 01:01:03;;;;;;;;;;;;;;;;;;5055123;28;19925;-61
2023/05/02 01:03:29;;;;;;;;;;;;;;;;;;5051761;28;19921;-60
2023/05/02 01:05:55;;;;;;;;;;;;;;;;;;5050699;28;20260;-61
2023/05/02 01:08:21;;;;;;;;;;;;;;;;;;5041494;28;20009;-61
2023/05/02 01:10:47;;;;;;;;;;;;;;;;;;5044826;28;19959;-61
2023/05/02 01:13:13;;;;;;;;;;;;;;;;;;5049252;28;19925;-61
2023/05/02 01:15:39;;;;;;;;;;;;;;;;;;5049420;28;19977;-60
2023/05/02 01:18:05;;;;;;;;;;;;;;;;;;5044646;28;19929;-61
2023/05/02 01:20:31;;;;;;;;;;;;;;;;;;5050893;28;20313;-61
2023/05/02 01:22:57;;;;;;;;;;;;;;;;;;5051468;28;20357;-60
2023/05/02 01:25:23;;;;;;;;;;;;;;;;;;5036199;28;19924;-60
2023/05/02 01:27:48;;;;;;;;;;;;;;;;;;5048432;28;19978;-61
2023/05/02 01:30:14;;;;;;;;;;;;;;;;;;5043250;28;19921;-62
2023/05/02 01:32:40;;;;;;;;;;;;;;;;;;5046642;28;19920;-60
2023/05/02 01:35:06;;;;;;;;;;;;;;;;;;5042075;28;20297;-61
2023/05/02 01:37:32;;;;;;;;;;;;;;;;;;5045556;28;20393;-60
2023/05/02 01:39:58;;;;;;;;;;;;;;;;;;5050973;28;19925;-61
2023/05/02 01:42:24;;;;;;;;;;;;;;;;;;5049917;28;19921;-61
2023/05/02 01:44:50;;;;;;;;;;;;;;;;;;5043544;28;20365;-61
2023/05/02 01:47:16;;;;;;;;;;;;;;;;;;5045955;28;19964;-61
2023/05/02 01:49:42;;;;;;;;;;;;;;;;;;5047760;28;19921;-61
2023/05/02 01:52:09;;;;;;;;;;;;;;;;;;5030035;28;19924;-61
2023/05/02 01:54:35;;;;;;;;;;;;;;;;;;5045642;28;20307;-61
2023/05/02 01:57:02;;;;;;;;;;;;;;;;;;5035133;28;19920;-60
2023/05/02 01:59:28;;;;;;;;;;;;;;;;;;5049259;28;19925;-61
2023/05/02 02:01:54;;;;;;;;;;;;;;;;;;5038949;28;20393;-60
2023/05/02 02:04:21;;;;;;;;;;;;;;;;;;5049105;28;19927;-61
2023/05/02 02:06:47;;;;;;;;;;;;;;;;;;5051472;28;19921;-61
2023/05/02 02:09:13;;;;;;;;;;;;;;;;;;5046114;28;19927;-61
2023/05/02 02:11:39;;;;;;;;;;;;;;;;;;5050901;28;20373;-61
2023/05/02 02:14:05;;;;;;;;;;;;;;;;;;5030598;28;19925;-61
2023/05/02 02:16:31;;;;;;;;;;;;;;;;;;5047252;28;19974;-61
2023/05/02 02:18:57;;;;;;;;;;;;;;;;;;5050133;28;20309;-60
2023/05/02 02:21:23;;;;;;;;;;;;;;;;;;5050718;28;19921;-60
2023/05/02 02:23:49;;;;;;;;;;;;;;;;;;5050408;28;19921;-61
2023/05/02 02:26:15;;;;;;;;;;;;;;;;;;5049121;28;19927;-60
2023/05/02 02:28:41;;;;;;;;;;;;;;;;;;5029004;28;19925;-61
2023/05/02 02:31:07;;;;;;;;;;;;;;;;;;5046111;28;20326;-61
2023/05/02 02:33:33;;;;;;;;;;;;;;;;;;5051548;28;19999;-61
2023/05/02 02:35:59;;;;;;;;;;;;;;;;;;5023559;28;19927;-61
2023/05/02 02:38:25;;;;;;;;;;;;;;;;;;5032780;28;20440;-61
2023/05/02 02:40:51;;;;;;;;;;;;;;;;;;5050908;28;20404;-62
2023/05/02 02:43:17;;;;;;;;;;;;;;;;;;5032552;28;19920;-62
2023/05/02 02:45:43;;;;;;;;;;;;;;;;;;5045904;28;19931;-61
2023/05/02 02:48:09;;;;;;;;;;;;;;;;;;5050702;28;20332;-61
2023/05/02 02:50:35;;;;;;;;;;;;;;;;;;5046739;28;19921;-60
2023/05/02 02:53:01;;;;;;;;;;;;;;;;;;5047641;28;19924;-60
2023/05/02 02:55:28;;;;;;;;;;;;;;;;;;5049558;28;19977;-61
2023/05/02 02:57:54;;;;;;;;;;;;;;;;;;5049161;28;19921;-61
2023/05/02 03:00:20;;;;;;;;;;;;;;;;;;5047652;28;19932;-61
2023/05/02 03:02:46;;;;;;;;;;;;;;;;;;5029672;28;19982;-61
2023/05/02 03:05:12;;;;;;;;;;;;;;;;;;5050292;28;19920;-61
2023/05/02 03:07:37;;;;;;;;;;;;;;;;;;5031533;28;19921;-60
2023/05/02 03:10:04;;;;;;;;;;;;;;;;;;5046910;28;20678;-62
2023/05/02 03:12:30;;;;;;;;;;;;;;;;;;5049341;28;19977;-59
2023/05/02 03:14:55;;;;;;;;;;;;;;;;;;5049519;28;19924;-61
2023/05/02 03:17:21;;;;;;;;;;;;;;;;;;5049739;28;19928;-61
2023/05/02 03:19:47;;;;;;;;;;;;;;;;;;5046501;28;20480;-60
2023/05/02 03:22:13;;;;;;;;;;;;;;;;;;5031988;28;19925;-60
2023/05/02 03:24:39;;;;;;;;;;;;;;;;;;5048929;28;19921;-61
2023/05/02 03:27:05;;;;;;;;;;;;;;;;;;5042474;28;20213;-61
2023/05/02 03:29:31;;;;;;;;;;;;;;;;;;5046535;28;19962;-60
2023/05/02 03:31:57;;;;;;;;;;;;;;;;;;5050657;28;19933;-61
2023/05/02 03:34:23;;;;;;;;;;;;;;;;;;5052412;28;20294;-60
2023/05/02 03:36:49;;;;;;;;;;;;;;;;;;5049668;28;20812;-61
2023/05/02 03:39:15;;;;;;;;;;;;;;;;;;5034376;28;19935;-61
2023/05/02 03:41:42;;;;;;;;;;;;;;;;;;5040828;28;20555;-61
2023/05/02 03:44:08;;;;;;;;;;;;;;;;;;5049179;28;19925;-61
2023/05/02 03:46:34;;;;;;;;;;;;;;;;;;5050253;28;19928;-61
2023/05/02 03:49:00;;;;;;;;;;;;;;;;;;5061965;22;19921;-61
2023/05/02 03:51:26;;;;;;;;;;;;;;;;;;5083446;28;19977;-61
2023/05/02 03:53:52;;;;;;;;;;;;;;;;;;5085947;28;19931;-61
2023/05/02 03:56:20;;;;;;;;;;;;;;;;;;5089636;28;19924;-61
2023/05/02 03:58:46;;;;;;;;;;;;;;;;;;5081492;28;19920;-61
2023/05/02 04:01:12;;;;;;;;;;;;;;;;;;5090739;28;19920;-61
2023/05/02 04:03:38;;;;;;;;;;;;;;;;;;5093498;28;19931;-61
2023/05/02 04:06:04;;;;;;;;;;;;;;;;;;5092577;28;19924;-60
2023/05/02 04:08:30;;;;;;;;;;;;;;;;;;5084348;28;20310;-61
2023/05/02 04:10:56;;;;;;;;;;;;;;;;;;5068653;28;20002;-60
2023/05/02 04:13:22;;;;;;;;;;;;;;;;;;5090597;28;20007;-61
2023/05/02 04:15:47;;;;;;;;;;;;;;;;;;5080631;28;19946;-61
2023/05/02 04:18:13;;;;;;;;;;;;;;;;;;5089653;28;19920;-60
2023/05/02 04:20:39;;;;;;;;;;;;;;;;;;5104697;28;19920;-60
2023/05/02 04:23:05;;;;;;;;;;;;;;;;;;5097659;28;19924;-60
2023/05/02 04:25:31;;;;;;;;;;;;;;;;;;5082278;28;19928;-61
2023/05/02 04:27:57;;;;;;;;;;;;;;;;;;5087622;28;19959;-60
2023/05/02 04:30:23;;;;;;;;;;;;;;;;;;5092118;28;19920;-61
2023/05/02 04:32:49;;;;;;;;;;;;;;;;;;5083113;28;20392;-60
2023/05/02 04:35:16;;;;;;;;;;;;;;;;;;5080894;28;19924;-61
2023/05/02 04:37:42;;;;;;;;;;;;;;;;;;5091636;28;19932;-60
2023/05/02 04:40:08;;;;;;;;;;;;;;;;;;5085038;28;19924;-60
2023/05/02 04:42:33;;;;;;;;;;;;;;;;;;5089997;28;19927;-61
2023/05/02 04:44:59;;;;;;;;;;;;;;;;;;5092514;28;19920;-61
2023/05/02 04:47:25;;;;;;;;;;;;;;;;;;5082936;28;19963;-61
2023/05/02 04:49:51;;;;;;;;;;;;;;;;;;5089066;28;19938;-61
2023/05/02 04:52:17;;;;;;;;;;;;;;;;;;5086343;28;19967;-61
2023/05/02 04:54:43;;;;;;;;;;;;;;;;;;5090045;28;19920;-61
2023/05/02 04:57:09;;;;;;;;;;;;;;;;;;5087178;28;19968;-64
2023/05/02 04:59:35;;;;;;;;;;;;;;;;;;5088320;28;19924;-62
2023/05/02 05:02:01;;;;;;;;;;;;;;;;;;5101947;28;20273;-60
2023/05/02 05:04:27;;;;;;;;;;;;;;;;;;5083755;28;19978;-61
2023/05/02 05:06:53;;;;;;;;;;;;;;;;;;5090957;28;20315;-61
2023/05/02 05:09:19;;;;;;;;;;;;;;;;;;5090225;28;19924;-61
2023/05/02 05:11:45;;;;;;;;;;;;;;;;;;5091539;28;20262;-61
2023/05/02 05:14:11;;;;;;;;;;;;;;;;;;5084916;28;19920;-60
2023/05/02 05:16:37;;;;;;;;;;;;;;;;;;5092771;28;19939;-61
2023/05/02 05:19:04;;;;;;;;;;;;;;;;;;5093019;28;20335;-61
2023/05/02 05:21:29;;;;;;;;;;;;;;;;;;5086652;28;20137;-61
2023/05/02 05:23:55;;;;;;;;;;;;;;;;;;5080636;28;20007;-61
2023/05/02 05:26:22;;;;;;;;;;;;;;;;;;5078626;28;19937;-61
2023/05/02 05:28:49;;;;;;;;;;;;;;;;;;5088333;28;19920;-61
2023/05/02 05:31:16;;;;;;;;;;;;;;;;;;5092151;28;20528;-61
2023/05/02 05:33:41;;;;;;;;;;;;;;;;;;5089265;28;19920;-61
2023/05/02 05:36:07;;;;;;;;;;;;;;;;;;5091924;28;20380;-60
2023/05/02 05:38:33;;;;;;;;;;;;;;;;;;5088574;28;19921;-60
2023/05/02 05:41:00;;;;;;;;;;;;;;;;;;5093581;28;20325;-60
2023/05/02 05:43:26;;;;;;;;;;;;;;;;;;5089645;28;19967;-61
2023/05/02 05:45:52;;;;;;;;;;;;;;;;;;5072576;28;19974;-62
2023/05/02 05:48:18;;;;;;;;;;;;;;;;;;5091883;28;19927;-60
2023/05/02 05:50:44;;;;;;;;;;;;;;;;;;5079845;28;19932;-61
2023/05/02 05:53:10;;;;;;;;;;;;;;;;;;5073656;28;20536;-60
2023/05/02 05:55:37;;;;;;;;;;;;;;;;;;5087987;28;20238;-61
2023/05/02 05:58:03;;;;;;;;;;;;;;;;;;5080370;28;19940;-61
2023/05/02 06:00:29;;;;;;;;;;;;;;;;;;5081185;28;19928;-61
2023/05/02 06:02:55;;;;;;;;;;;;;;;;;;5081683;28;19920;-61
2023/05/02 06:05:21;;;;;;;;;;;;;;;;;;5088721;28;20281;-61
2023/05/02 06:07:47;;;;;;;;;;;;;;;;;;5081182;28;19935;-62
2023/05/02 06:10:12;;;;;;;;;;;;;;;;;;5078916;28;19920;-62
2023/05/02 06:12:38;;;;;;;;;;;;;;;;;;5086916;28;20362;-61
2023/05/02 06:15:04;;;;;;;;;;;;;;;;;;5089184;28;20022;-62
2023/05/02 06:17:30;;;;;;;;;;;;;;;;;;5083896;28;19928;-61
2023/05/02 06:19:56;;;;;;;;;;;;;;;;;;5073039;28;19920;-61
2023/05/02 06:22:22;;;;;;;;;;;;;;;;;;5076477;28;20573;-61
2023/05/02 06:24:48;;;;;;;;;;;;;;;;;;5089255;28;19920;-61
2023/05/02 06:27:14;;;;;;;;;;;;;;;;;;5091118;28;19924;-61
2023/05/02 06:29:40;;;;;;;;;;;;;;;;;;5076991;28;19927;-61
2023/05/02 06:32:06;;;;;;;;;;;;;;;;;;5077949;28;19920;-61
2023/05/02 06:34:32;;;;;;;;;;;;;;;;;;5078732;28;19928;-61
2023/05/02 06:36:58;;;;;;;;;;;;;;;;;;5081985;28;19928;-61
2023/05/02 06:39:24;;;;;;;;;;;;;;;;;;5092108;28;19927;-60
2023/05/02 06:41:49;;;;;;;;;;;;;;;;;;5074112;28;20462;-60
2023/05/02 06:44:15;;;;;;;;;;;;;;;;;;5072016;28;19975;-60
2023/05/02 06:46:41;;;;;;;;;;;;;;;;;;5089073;28;19982;-61
2023/05/02 06:49:07;;;;;;;;;;;;;;;;;;5080076;28;19971;-62
2023/05/02 06:51:33;;;;;;;;;;;;;;;;;;5073676;28;20404;-61
2023/05/02 06:53:59;;;;;;;;;;;;;;;;;;5087391;28;19975;-61
2023/05/02 06:56:25;;;;;;;;;;;;;;;;;;5086889;28;19932;-61
2023/05/02 06:58:51;;;;;;;;;;;;;;;;;;5087557;28;19920;-61
2023/05/02 07:01:17;;;;;;;;;;;;;;;;;;5071597;28;20057;-61
2023/05/02 07:03:43;;;;;;;;;;;;;;;;;;5083697;28;19931;-62
2023/05/02 07:06:09;;;;;;;;;;;;;;;;;;5090618;28;20373;-62
2023/05/02 07:08:35;;;;;;;;;;;;;;;;;;5077593;28;19973;-61
2023/05/02 07:11:01;;;;;;;;;;;;;;;;;;5091271;28;19920;-62
2023/05/02 07:13:27;;;;;;;;;;;;;;;;;;5091782;28;19928;-62
2023/05/02 07:15:53;;;;;;;;;;;;;;;;;;5090481;28;19927;-61
2023/05/02 07:18:20;;;;;;;;;;;;;;;;;;5082561;28;20273;-61
2023/05/02 07:20:46;;;;;;;;;;;;;;;;;;5087239;28;19924;-61
2023/05/02 07:23:12;;;;;;;;;;;;;;;;;;5089296;28;20428;-62
2023/05/02 07:25:38;;;;;;;;;;;;;;;;;;5090166;28;20008;-62
2023/05/02 07:28:04;;;;;;;;;;;;;;;;;;5087657;28;19924;-61
2023/05/02 07:30:30;;;;;;;;;;;;;;;;;;5087103;28;19924;-61
2023/05/02 07:32:56;;;;;;;;;;;;;;;;;;5082597;28;20594;-62
2023/05/02 07:35:22;;;;;;;;;;;;;;;;;;5081564;28;19931;-62
2023/05/02 07:37:48;;;;;;;;;;;;;;;;;;5083544;28;19939;-62
2023/05/02 07:40:14;;;;;;;;;;;;;;;;;;5085640;28;19939;-62
2023/05/02 07:42:40;;;;;;;;;;;;;;;;;;5085929;28;19927;-61
2023/05/02 07:45:06;;;;;;;;;;;;;;;;;;5081633;28;19924;-62
2023/05/02 07:47:32;;;;;;;;;;;;;;;;;;5088415;28;19942;-61
2023/05/02 07:49:58;;;;;;;;;;;;;;;;;;5089342;28;19931;-61
2023/05/02 07:52:24;;;;;;;;;;;;;;;;;;5078664;28;19921;-61
2023/05/02 07:54:50;;;;;;;;;;;;;;;;;;5084229;28;19964;-61
2023/05/02 07:57:16;;;;;;;;;;;;;;;;;;5085472;28;20021;-61
2023/05/02 07:59:42;;;;;;;;;;;;;;;;;;5081808;28;19920;-61
2023/05/02 08:02:08;;;;;;;;;;;;;;;;;;5085397;28;19932;-61
2023/05/02 08:04:34;;;;;;;;;;;;;;;;;;5063641;28;20020;-62
2023/05/02 08:07:00;;;;;;;;;;;;;;;;;;5079488;28;19920;-62
2023/05/02 08:09:26;;;;;;;;;;;;;;;;;;5086945;28;19924;-59
2023/05/02 08:11:51;;;;;;;;;;;;;;;;;;5086017;28;19924;-60
2023/05/02 08:14:17;;;;;;;;;;;;;;;;;;5089081;28;20340;-60
2023/05/02 08:16:43;;;;;;;;;;;;;;;;;;5088937;28;19924;-60
2023/05/02 08:19:09;;;;;;;;;;;;;;;;;;5094771;28;19920;-60
2023/05/02 08:21:35;;;;;;;;;;;;;;;;;;5085606;28;19931;-60
2023/05/02 08:24:01;;;;;;;;;;;;;;;;;;5074495;28;19920;-60
2023/05/02 08:26:27;;;;;;;;;;;;;;;;;;5072967;28;19929;-61
2023/05/02 08:28:53;;;;;;;;;;;;;;;;;;5085016;28;19920;-61
2023/05/02 08:31:19;;;;;;;;;;;;;;;;;;5092430;28;19923;-61
2023/05/02 08:33:45;;;;;;;;;;;;;;;;;;5090142;28;20496;-61
2023/05/02 08:36:11;;;;;;;;;;;;;;;;;;5091562;28;19920;-61
2023/05/02 08:38:37;;;;;;;;;;;;;;;;;;5088571;28;19961;-61
2023/05/02 08:41:03;;;;;;;;;;;;;;;;;;5092509;28;19923;-61
2023/05/02 08:43:29;;;;;;;;;;;;;;;;;;5091397;28;20281;-61
2023/05/02 08:45:55;;;;;;;;;;;;;;;;;;5090577;28;19924;-61
2023/05/02 08:48:21;;;;;;;;;;;;;;;;;;5092424;28;19924;-61
2023/05/02 08:50:48;;;;;;;;;;;;;;;;;;5087488;28;19989;-61
2023/05/02 08:53:14;;;;;;;;;;;;;;;;;;5085671;28;20001;-61
2023/05/02 08:55:40;;;;;;;;;;;;;;;;;;5085495;28;19964;-61
2023/05/02 08:58:06;;;;;;;;;;;;;;;;;;5087556;28;20409;-61
2023/05/02 09:00:32;;;;;;;;;;;;;;;;;;5086058;28;19977;-61
2023/05/02 09:02:58;;;;;;;;;;;;;;;;;;5093308;28;19924;-61
2023/05/02 09:05:24;;;;;;;;;;;;;;;;;;5092758;28;19986;-61
2023/05/02 09:07:49;;;;;;;;;;;;;;;;;;5084433;28;20024;-61
2023/05/02 09:10:15;;;;;;;;;;;;;;;;;;5090177;28;20006;-61
2023/05/02 09:12:41;;;;;;;;;;;;;;;;;;5091363;28;19920;-61
2023/05/02 09:15:08;;;;;;;;;;;;;;;;;;5087510;28;19928;-61
2023/05/02 09:17:33;;;;;;;;;;;;;;;;;;5094498;28;19924;-61
2023/05/02 09:20:00;;;;;;;;;;;;;;;;;;5074411;28;19927;-61
2023/05/02 09:22:26;;;;;;;;;;;;;;;;;;5085385;28;19973;-61
2023/05/02 09:24:52;;;;;;;;;;;;;;;;;;5090714;28;19951;-61
2023/05/02 09:27:18;;;;;;;;;;;;;;;;;;5092705;28;20006;-61
2023/05/02 09:29:45;;;;;;;;;;;;;;;;;;5091247;28;20439;-61
2023/05/02 09:32:11;;;;;;;;;;;;;;;;;;5083772;28;19972;-61
2023/05/02 09:34:38;;;;;;;;;;;;;;;;;;5089274;28;20035;-61
2023/05/02 09:37:04;;;;;;;;;;;;;;;;;;5090243;28;19924;-61
2023/05/02 09:39:30;;;;;;;;;;;;;;;;;;5089722;28;20011;-62
2023/05/02 09:41:56;;;;;;;;;;;;;;;;;;5092960;28;20352;-61
2023/05/02 09:44:22;;;;;;;;;;;;;;;;;;5089700;28;19920;-62
2023/05/02 09:46:48;;;;;;;;;;;;;;;;;;5090711;28;19959;-62
2023/05/02 09:49:14;;;;;;;;;;;;;;;;;;5089049;28;19959;-60
2023/05/02 09:51:40;;;;;;;;;;;;;;;;;;5092061;28;20015;-61
2023/05/02 09:54:06;;;;;;;;;;;;;;;;;;5088403;28;19931;-61
2023/05/02 09:56:31;;;;;;;;;;;;;;;;;;5089704;28;19924;-62
2023/05/02 09:58:57;;;;;;;;;;;;;;;;;;5086596;28;19927;-62
2023/05/02 10:01:23;;;;;;;;;;;;;;;;;;5086522;28;19924;-61
2023/05/02 10:03:49;;;;;;;;;;;;;;;;;;5089847;28;19974;-62
2023/05/02 10:06:16;;;;;;;;;;;;;;;;;;5084408;28;19920;-61
2023/05/02 10:08:44;;;;;;;;;;;;;;;;;;5088723;28;19963;-60
2023/05/02 10:11:10;;;;;;;;;;;;;;;;;;5091376;28;19919;-61
2023/05/02 10:13:36;;;;;;;;;;;;;;;;;;5084843;28;19920;-61
2023/05/02 10:16:02;;;;;;;;;;;;;;;;;;5090912;28;19920;-61
2023/05/02 10:18:28;;;;;;;;;;;;;;;;;;5090661;28;19924;-60
2023/05/02 10:20:53;;;;;;;;;;;;;;;;;;5085346;28;19951;-61
2023/05/02 10:23:19;;;;;;;;;;;;;;;;;;5090825;28;20524;-61
2023/05/02 10:25:45;;;;;;;;;;;;;;;;;;5090309;28;19927;-61
2023/05/02 10:28:11;;;;;;;;;;;;;;;;;;5089237;28;20368;-61
2023/05/02 10:30:37;;;;;;;;;;;;;;;;;;5085363;28;20311;-62
2023/05/02 10:33:03;;;;;;;;;;;;;;;;;;5088313;28;19920;-62
2023/05/02 10:35:29;;;;;;;;;;;;;;;;;;5083723;28;19920;-62
2023/05/02 10:37:55;;;;;;;;;;;;;;;;;;5086110;28;19928;-62
2023/05/02 10:40:21;;;;;;;;;;;;;;;;;;5088207;28;19924;-62
2023/05/02 10:42:48;;;;;;;;;;;;;;;;;;5091669;28;20361;-61
2023/05/02 10:45:14;;;;;;;;;;;;;;;;;;5084194;28;19924;-61
2023/05/02 10:47:40;;;;;;;;;;;;;;;;;;5086088;28;20553;-61
2023/05/02 10:50:07;;;;;;;;;;;;;;;;;;5089371;28;19924;-61
2023/05/02 10:52:34;;;;;;;;;;;;;;;;;;5086188;28;19924;-61
2023/05/02 10:54:59;;;;;;;;;;;;;;;;;;5084963;28;19926;-61
2023/05/02 10:57:26;;;;;;;;;;;;;;;;;;5078163;28;19928;-61
2023/05/02 10:59:54;;;;;;;;;;;;;;;;;;5100687;28;21364;-61
2023/05/02 11:02:20;;;;;;;;;;;;;;;;;;5081124;28;19931;-62
2023/05/02 11:04:46;;;;;;;;;;;;;;;;;;5076343;28;19973;-61
2023/05/02 11:07:12;;;;;;;;;;;;;;;;;;5090305;28;19920;-61
2023/05/02 11:09:38;;;;;;;;;;;;;;;;;;5091470;28;19924;-61
2023/05/02 11:12:04;;;;;;;;;;;;;;;;;;5091594;28;20023;-61
2023/05/02 11:14:31;;;;;;;;;;;;;;;;;;5091648;28;19926;-61
2023/05/02 11:16:59;;;;;;;;;;;;;;;;;;5094696;28;19924;-61
2023/05/02 11:19:25;;;;;;;;;;;;;;;;;;5088534;28;19930;-61
2023/05/02 11:21:52;;;;;;;;;;;;;;;;;;5087508;28;20051;-61
2023/05/02 11:24:18;;;;;;;;;;;;;;;;;;5079900;28;19920;-61
2023/05/02 11:26:44;;;;;;;;;;;;;;;;;;5076931;28;19928;-61
2023/05/02 11:29:10;;;;;;;;;;;;;;;;;;5079397;28;19927;-62
2023/05/02 11:31:37;;;;;;;;;;;;;;;;;;5090086;28;19924;-62
2023/05/02 11:34:03;;;;;;;;;;;;;;;;;;5091486;28;19927;-62
2023/05/02 11:36:29;;;;;;;;;;;;;;;;;;5089835;28;19928;-62
2023/05/02 11:38:55;;;;;;;;;;;;;;;;;;5091071;28;19920;-62
2023/05/02 11:41:21;;;;;;;;;;;;;;;;;;5072754;28;19965;-62
2023/05/02 11:43:47;;;;;;;;;;;;;;;;;;5073529;28;20393;-62
2023/05/02 11:46:13;;;;;;;;;;;;;;;;;;5079107;28;19932;-62
2023/05/02 11:48:39;;;;;;;;;;;;;;;;;;5085555;28;19920;-62
2023/05/02 11:51:05;;;;;;;;;;;;;;;;;;5093464;28;19943;-62
2023/05/02 11:53:32;;;;;;;;;;;;;;;;;;5082498;28;20411;-62
2023/05/02 11:55:58;;;;;;;;;;;;;;;;;;5093192;28;19963;-62
2023/05/02 11:58:23;;;;;;;;;;;;;;;;;;5091615;28;19966;-61
2023/05/02 12:00:49;;;;;;;;;;;;;;;;;;5089859;28;20614;-62
2023/05/02 12:03:15;;;;;;;;;;;;;;;;;;5092547;28;19924;-61
2023/05/02 12:05:41;;;;;;;;;;;;;;;;;;5094179;28;20364;-61
2023/05/02 12:08:07;;;;;;;;;;;;;;;;;;5094604;28;19924;-63
2023/05/02 12:10:33;;;;;;;;;;;;;;;;;;5094886;28;19971;-61
2023/05/02 12:12:59;;;;;;;;;;;;;;;;;;5085954;28;20022;-61
2023/05/02 12:15:25;;;;;;;;;;;;;;;;;;5087269;28;19979;-60
2023/05/02 12:17:51;;;;;;;;;;;;;;;;;;5089788;28;19924;-62
2023/05/02 12:20:17;;;;;;;;;;;;;;;;;;5094568;28;19928;-61
2023/05/02 12:22:43;;;;;;;;;;;;;;;;;;5094408;28;19947;-61
2023/05/02 12:25:09;;;;;;;;;;;;;;;;;;5094538;28;19966;-62
2023/05/02 12:27:36;;;;;;;;;;;;;;;;;;5094541;28;19988;-60
2023/05/02 12:30:02;;;;;;;;;;;;;;;;;;5088593;28;19924;-61
2023/05/02 12:32:28;;;;;;;;;;;;;;;;;;5082757;28;19920;-61
2023/05/02 12:34:54;;;;;;;;;;;;;;;;;;5078366;28;19925;-61
2023/05/02 12:37:20;;;;;;;;;;;;;;;;;;5081957;28;19924;-61
2023/05/02 12:39:46;;;;;;;;;;;;;;;;;;5072671;28;19920;-61
2023/05/02 12:42:12;;;;;;;;;;;;;;;;;;5074035;28;19928;-61
2023/05/02 12:44:38;;;;;;;;;;;;;;;;;;5083512;28;20002;-62
2023/05/02 12:47:04;;;;;;;;;;;;;;;;;;5094393;28;19920;-61
2023/05/02 12:49:30;;;;;;;;;;;;;;;;;;5081725;28;19925;-61
2023/05/02 12:51:56;;;;;;;;;;;;;;;;;;5078071;28;20429;-61
2023/05/02 12:54:22;;;;;;;;;;;;;;;;;;5094000;28;19920;-61
2023/05/02 12:56:50;;;;;;;;;;;;;;;;;;5085098;28;19938;-62
2023/05/02 12:59:16;;;;;;;;;;;;;;;;;;5094190;28;19935;-62
2023/05/02 13:01:42;;;;;;;;;;;;;;;;;;5090868;28;19920;-62
2023/05/02 13:04:08;;;;;;;;;;;;;;;;;;5080640;28;19924;-62
2023/05/02 13:06:36;;;;;;;;;;;;;;;;;;5071126;28;19920;-62
2023/05/02 13:09:02;;;;;;;;;;;;;;;;;;5074561;28;19931;-62
2023/05/02 13:11:28;;;;;;;;;;;;;;;;;;5078691;28;19920;-62
2023/05/02 13:13:54;;;;;;;;;;;;;;;;;;5072420;28;20333;-61
2023/05/02 13:16:20;;;;;;;;;;;;;;;;;;5072220;28;19924;-60
2023/05/02 13:18:46;;;;;;;;;;;;;;;;;;5072272;28;19939;-61
2023/05/02 13:21:12;;;;;;;;;;;;;;;;;;5093082;28;19973;-61
2023/05/02 13:23:39;;;;;;;;;;;;;;;;;;5093590;28;19920;-61
2023/05/02 13:26:05;;;;;;;;;;;;;;;;;;5081970;28;19921;-62
2023/05/02 13:28:32;;;;;;;;;;;;;;;;;;5086216;28;19926;-61
2023/05/02 13:30:58;;;;;;;;;;;;;;;;;;5093464;28;19927;-61
2023/05/02 13:33:24;;;;;;;;;;;;;;;;;;5090437;28;19927;-61
2023/05/02 13:35:50;;;;;;;;;;;;;;;;;;5079233;28;19925;-62
2023/05/02 13:38:16;;;;;;;;;;;;;;;;;;5078003;28;20600;-62
2023/05/02 13:40:41;;;;;;;;;;;;;;;;;;5093206;28;19950;-61
2023/05/02 13:43:07;;;;;;;;;;;;;;;;;;5092725;28;19928;-61
2023/05/02 13:45:34;;;;;;;;;;;;;;;;;;5091648;28;20599;-61
2023/05/02 13:48:00;;;;;;;;;;;;;;;;;;5078029;28;19920;-61
2023/05/02 13:50:26;;;;;;;;;;;;;;;;;;5085911;28;20016;-61
2023/05/02 13:52:52;;;;;;;;;;;;;;;;;;5084937;28;20022;-60
2023/05/02 13:55:18;;;;;;;;;;;;;;;;;;5075905;28;19943;-61
2023/05/02 13:57:44;;;;;;;;;;;;;;;;;;5073311;28;20055;-61
2023/05/02 14:00:10;;;;;;;;;;;;;;;;;;5092224;28;20422;-60
2023/05/02 14:02:36;;;;;;;;;;;;;;;;;;5090883;28;19931;-61
2023/05/02 14:05:02;;;;;;;;;;;;;;;;;;5091085;28;19920;-61
2023/05/02 14:07:28;;;;;;;;;;;;;;;;;;5094656;28;20323;-61
2023/05/02 14:09:54;;;;;;;;;;;;;;;;;;5077898;28;19920;-62
2023/05/02 14:12:20;;;;;;;;;;;;;;;;;;5088699;28;19924;-61
2023/05/02 14:14:46;;;;;;;;;;;;;;;;;;5087149;28;19920;-60
2023/05/02 14:17:12;;;;;;;;;;;;;;;;;;5088207;28;19924;-61
2023/05/02 14:19:38;;;;;;;;;;;;;;;;;;5088924;28;19943;-61
2023/05/02 14:22:04;;;;;;;;;;;;;;;;;;5091231;28;19955;-61
2023/05/02 14:24:30;;;;;;;;;;;;;;;;;;5087455;28;19920;-61
2023/05/02 14:26:57;;;;;;;;;;;;;;;;;;5084573;28;19921;-61
2023/05/02 14:29:23;;;;;;;;;;;;;;;;;;5081760;28;19921;-61
2023/05/02 14:31:48;;;;;;;;;;;;;;;;;;5088379;28;20297;-60
2023/05/02 14:34:14;;;;;;;;;;;;;;;;;;5092223;28;19920;-60
2023/05/02 14:36:40;;;;;;;;;;;;;;;;;;5091814;28;19935;-61
2023/05/02 14:39:06;;;;;;;;;;;;;;;;;;5086612;28;20359;-60
2023/05/02 14:41:32;;;;;;;;;;;;;;;;;;5086522;28;19920;-61
2023/05/02 14:43:58;;;;;;;;;;;;;;;;;;5081073;28;19920;-61
2023/05/02 14:46:24;;;;;;;;;;;;;;;;;;5089488;28;20012;-61
2023/05/02 14:48:50;;;;;;;;;;;;;;;;;;5091820;28;19920;-59
2023/05/02 14:51:16;;;;;;;;;;;;;;;;;;5086681;28;19924;-61
2023/05/02 14:53:42;;;;;;;;;;;;;;;;;;5088300;28;19963;-61
2023/05/02 14:56:08;;;;;;;;;;;;;;;;;;5086165;28;19928;-61
2023/05/02 14:58:34;;;;;;;;;;;;;;;;;;5086277;28;19963;-61
2023/05/02 15:01:00;;;;;;;;;;;;;;;;;;5091069;28;19963;-60
2023/05/02 15:03:26;;;;;;;;;;;;;;;;;;5086738;28;19982;-61
2023/05/02 15:05:51;;;;;;;;;;;;;;;;;;5096835;28;20388;-60
2023/05/02 15:08:18;;;;;;;;;;;;;;;;;;5089219;28;20011;-61
2023/05/02 15:10:44;;;;;;;;;;;;;;;;;;5085291;28;19924;-61
2023/05/02 15:13:10;;;;;;;;;;;;;;;;;;5090038;28;19969;-61
2023/05/02 15:15:36;;;;;;;;;;;;;;;;;;5055612;28;19920;-62
2023/05/02 15:18:02;;;;;;;;;;;;;;;;;;5075793;28;20007;-62
2023/05/02 15:20:28;;;;;;;;;;;;;;;;;;5089056;28;19970;-61
2023/05/02 15:22:54;;;;;;;;;;;;;;;;;;5085705;28;19959;-61
2023/05/02 15:25:20;;;;;;;;;;;;;;;;;;5090257;28;19927;-62
2023/05/02 15:27:46;;;;;;;;;;;;;;;;;;5093648;28;19920;-62
2023/05/02 15:30:12;;;;;;;;;;;;;;;;;;5088719;28;19924;-62
2023/05/02 15:32:38;;;;;;;;;;;;;;;;;;5081234;28;20298;-62
2023/05/02 15:35:05;;;;;;;;;;;;;;;;;;5093311;28;19920;-60
2023/05/02 15:37:31;;;;;;;;;;;;;;;;;;5094193;28;20328;-61
2023/05/02 15:39:58;;;;;;;;;;;;;;;;;;5084301;28;19978;-61
2023/05/02 15:42:24;;;;;;;;;;;;;;;;;;5086827;28;19924;-61
2023/05/02 15:44:52;;;;;;;;;;;;;;;;;;5087634;28;20288;-61
2023/05/02 15:47:18;;;;;;;;;;;;;;;;;;5093355;28;19928;-61
2023/05/02 15:49:44;;;;;;;;;;;;;;;;;;5087549;28;19939;-62
2023/05/02 15:52:10;;;;;;;;;;;;;;;;;;5094795;28;20479;-62
2023/05/02 15:54:38;;;;;;;;;;;;;;;;;;5095218;28;20006;-61
2023/05/02 15:57:04;;;;;;;;;;;;;;;;;;5090765;28;20078;-61
2023/05/02 15:59:30;;;;;;;;;;;;;;;;;;5077476;28;20740;-62
2023/05/02 16:01:55;;;;;;;;;;;;;;;;;;5090116;28;19920;-61
2023/05/02 16:04:21;;;;;;;;;;;;;;;;;;5091067;22;19935;-61
2023/05/02 16:06:47;;;;;;;;;;;;;;;;;;5068236;28;19989;-61
2023/05/02 16:09:13;;;;;;;;;;;;;;;;;;5072609;28;20417;-60
2023/05/02 16:11:39;;;;;;;;;;;;;;;;;;5059533;28;20380;-60
2023/05/02 16:14:05;;;;;;;;;;;;;;;;;;5069890;28;19967;-61
2023/05/02 16:16:31;;;;;;;;;;;;;;;;;;5071122;28;20031;-61
2023/05/02 16:18:57;;;;;;;;;;;;;;;;;;5073053;28;20332;-61
2023/05/02 16:21:23;;;;;;;;;;;;;;;;;;5069263;28;19921;-61
2023/05/02 16:23:49;;;;;;;;;;;;;;;;;;5074024;28;19934;-61
2023/05/02 16:26:15;;;;;;;;;;;;;;;;;;5071318;28;19924;-61
2023/05/02 16:28:40;;;;;;;;;;;;;;;;;;5058582;28;20278;-62
2023/05/02 16:31:09;;;;;;;;;;;;;;;;;;5069284;28;19939;-61
2023/05/02 16:33:35;;;;;;;;;;;;;;;;;;5069736;28;20295;-61
2023/05/02 16:36:01;;;;;;;;;;;;;;;;;;5068932;28;19931;-62